.
WxDataArchive / Data Records for 2011-05-19
2011-05-18 May 2011 2011-05-20

Data Records for Thursday, 19 May 2011

Time	Temp	Chill	HIndex	Humid	Dewpt	 Wind 	HiWind	WindDir	Rain 	Barom 
-----	----	-----	------	-----	-----	------	------	-------	-----	----- 
00:00	56.6	56.6	56.6	94	54.9	0	0	---	0.00	29.871 
00:05	56.6	56.6	56.6	95	55.2	0	1	90	0.00	29.871 
00:10	56.6	56.6	56.6	95	55.2	0	1	90	0.00	29.871 
00:15	56.6	56.6	56.6	95	55.2	0	1	90	0.00	29.870 
00:20	56.6	56.6	56.6	95	55.2	0	1	90	0.00	29.870 
00:25	56.6	56.6	56.6	95	55.2	0	1	90	0.00	29.870 
00:30	56.5	56.5	56.5	95	55.1	0	0	---	0.00	29.869 
00:35	56.5	56.5	56.5	95	55.1	0	0	---	0.00	29.869 
00:40	56.5	56.5	56.5	95	55.1	0	1	90	0.00	29.869 
00:45	56.5	56.5	56.5	95	55.1	0	1	90	0.00	29.863 
00:50	56.3	56.3	56.3	95	54.9	0	0	---	0.00	29.863 
00:55	56.3	56.3	56.3	95	54.9	0	0	---	0.00	29.863 
01:00	56.3	56.3	56.3	95	54.9	0	1	90	0.00	29.864 
01:05	56.3	56.3	56.3	95	54.9	0	0	---	0.00	29.864 
01:10	56.3	56.3	56.3	95	54.9	0	0	---	0.00	29.864 
01:15	56.3	56.3	56.3	95	54.9	0	0	---	0.00	29.862 
01:20	56.3	56.3	56.3	95	54.9	0	1	90	0.00	29.862 
01:25	56.3	56.3	56.3	95	54.9	0	0	---	0.00	29.862 
01:30	56.3	56.3	56.3	95	54.9	0	0	---	0.00	29.862 
01:35	56.3	56.3	56.3	95	54.9	0	0	---	0.00	29.862 
01:40	56.3	56.3	56.3	96	55.2	0	0	---	0.00	29.862 
01:45	56.3	56.3	56.3	96	55.2	0	0	---	0.00	29.857 
01:50	56.2	56.2	56.2	95	54.8	0	0	---	0.00	29.857 
01:55	56.2	56.2	56.2	96	55.1	0	0	---	0.00	29.857 
02:00	56.2	56.2	56.2	96	55.1	0	0	---	0.00	29.861 
02:05	56.0	56.0	56.0	96	54.9	0	0	---	0.00	29.861 
02:10	56.0	56.0	56.0	96	54.9	0	0	---	0.00	29.861 
02:15	56.0	56.0	56.0	96	54.9	0	0	---	0.00	29.861 
02:20	56.0	56.0	56.0	96	54.9	0	0	---	0.00	29.861 
02:25	56.0	56.0	56.0	96	54.9	0	0	---	0.00	29.861 
02:30	55.9	55.9	55.9	96	54.8	0	0	---	0.00	29.862 
02:35	55.9	55.9	55.9	96	54.8	0	0	---	0.00	29.862 
02:40	55.9	55.9	55.9	96	54.8	0	0	---	0.00	29.862 
02:45	55.7	55.7	55.7	96	54.6	0	0	---	0.00	29.861 
02:50	55.7	55.7	55.7	96	54.6	0	0	---	0.00	29.861 
02:55	55.7	55.7	55.7	96	54.6	0	0	---	0.00	29.861 
03:00	55.7	55.7	55.7	96	54.6	0	0	---	0.00	29.864 
03:05	55.7	55.7	55.7	96	54.6	0	0	---	0.00	29.864 
03:10	55.7	55.7	55.7	96	54.6	0	0	---	0.00	29.864 
03:15	55.7	55.7	55.7	96	54.6	0	0	---	0.00	29.869 
03:20	55.7	55.7	55.7	96	54.6	0	0	---	0.00	29.869 
03:25	55.7	55.7	55.7	96	54.6	0	0	---	0.00	29.869 
03:30	55.7	55.7	55.7	96	54.6	0	0	---	0.00	29.875 
03:35	55.7	55.7	55.7	96	54.6	0	1	90	0.00	29.875 
03:40	55.7	55.7	55.7	96	54.6	0	0	---	0.00	29.875 
03:45	55.7	55.7	55.7	96	54.6	0	0	---	0.00	29.876 
03:50	55.7	55.7	55.7	96	54.6	0	1	90	0.00	29.876 
03:55	55.7	55.7	55.7	96	54.6	0	0	---	0.00	29.876 
04:00	55.7	55.7	55.7	96	54.6	0	0	---	0.00	29.875 
04:05	55.7	55.7	55.7	96	54.6	0	0	---	0.00	29.875 
04:10	55.7	55.7	55.7	96	54.6	0	1	90	0.00	29.875 
04:15	55.7	55.7	55.7	96	54.6	0	0	---	0.00	29.877 
04:20	55.9	55.9	55.9	96	54.8	0	0	---	0.00	29.877 
04:25	55.9	55.9	55.9	96	54.8	0	0	---	0.00	29.877 
04:30	55.9	55.9	55.9	96	54.8	0	0	---	0.00	29.878 
04:35	55.9	55.9	55.9	96	54.8	0	0	---	0.00	29.878 
04:40	55.9	55.9	55.9	96	54.8	0	0	---	0.00	29.878 
04:45	55.9	55.9	55.9	96	54.8	0	0	---	0.00	29.879 
04:50	55.9	55.9	55.9	96	54.8	0	0	---	0.00	29.879 
04:55	55.9	55.9	55.9	96	54.8	0	0	---	0.00	29.879 
05:00	55.9	55.9	55.9	96	54.8	0	0	---	0.00	29.880 
05:05	55.9	55.9	55.9	96	54.8	0	0	---	0.00	29.880 
05:10	55.9	55.9	55.9	96	54.8	0	0	---	0.00	29.880 
05:15	55.9	55.9	55.9	96	54.8	0	0	---	0.00	29.880 
05:20	55.9	55.9	55.9	96	54.8	0	1	90	0.00	29.880 
05:25	55.9	55.9	55.9	96	54.8	0	1	90	0.01	29.880 
05:30	55.9	55.9	55.9	96	54.8	0	0	---	0.00	29.879 
05:35	55.9	55.9	55.9	96	54.8	0	0	---	0.00	29.879 
05:40	55.9	55.9	55.9	96	54.8	0	0	---	0.00	29.879 
05:45	55.9	55.9	55.9	96	54.8	0	0	---	0.00	29.879 
05:50	55.9	55.9	55.9	96	54.8	0	0	---	0.00	29.879 
05:55	55.9	55.9	55.9	96	54.8	0	0	---	0.00	29.879 
06:00	55.9	55.9	55.9	96	54.8	0	0	---	0.00	29.879 
06:05	55.9	55.9	55.9	96	54.8	0	0	---	0.00	29.879 
06:10	55.9	55.9	55.9	96	54.8	0	1	90	0.00	29.879 
06:15	55.9	55.9	55.9	96	54.8	0	1	90	0.00	29.879 
06:20	55.9	55.9	55.9	96	54.8	0	0	---	0.00	29.879 
06:25	55.9	55.9	55.9	96	54.8	0	1	90	0.00	29.879 
06:30	55.9	55.9	55.9	96	54.8	0	0	---	0.01	29.879 
06:35	55.9	55.9	55.9	96	54.8	0	1	90	0.00	29.879 
06:40	55.9	55.9	55.9	96	54.8	0	0	---	0.00	29.879 
06:45	55.9	55.9	55.9	96	54.8	0	0	---	0.00	29.879 
06:50	55.9	55.9	55.9	96	54.8	0	0	---	0.00	29.879 
06:55	55.9	55.9	55.9	96	54.8	0	0	---	0.00	29.879 
07:00	55.9	55.9	55.9	96	54.8	0	0	---	0.00	29.879 
07:05	55.9	55.9	55.9	96	54.8	0	0	---	0.00	29.879 
07:10	55.9	55.9	55.9	96	54.8	0	0	---	0.00	29.879 
07:15	56.0	56.0	56.0	97	55.2	0	0	---	0.00	29.882 
07:20	56.0	56.0	56.0	97	55.2	0	0	---	0.00	29.882 
07:25	56.2	56.2	56.2	97	55.4	0	0	---	0.00	29.882 
07:30	56.3	56.3	56.3	97	55.5	0	0	---	0.00	29.890 
07:35	56.5	56.5	56.5	97	55.7	0	0	---	0.00	29.890 
07:40	56.6	56.6	56.6	97	55.8	0	0	---	0.00	29.890 
07:45	56.7	56.7	56.7	97	55.9	0	0	---	0.00	29.896 
07:50	56.7	56.7	56.7	97	55.9	0	1	90	0.00	29.896 
07:55	56.7	56.7	56.7	97	55.9	0	1	90	0.00	29.896 
08:00	56.9	56.9	56.9	97	56.1	0	1	90	0.00	29.906 
08:05	57.0	57.0	57.0	97	56.2	0	0	---	0.00	29.906 
08:10	57.5	57.5	57.5	97	56.7	0	1	90	0.00	29.906 
08:15	57.5	57.5	57.5	97	56.7	0	2	90	0.00	29.911 
08:20	57.5	57.5	57.5	97	56.7	1	2	90	0.00	29.911 
08:25	57.5	57.5	57.5	97	56.7	0	1	90	0.00	29.911 
08:30	57.5	57.5	57.5	97	56.7	0	2	90	0.00	29.924 
08:35	57.5	57.5	57.5	97	56.7	1	3	90	0.00	29.924 
08:40	57.5	57.5	57.5	97	56.7	1	3	90	0.00	29.924 
08:45	57.3	57.3	57.3	97	56.5	1	3	68	0.00	29.933 
08:50	57.3	57.3	57.3	97	56.5	1	3	68	0.00	29.933 
08:55	57.2	57.2	57.2	97	56.4	0	3	315	0.00	29.933 
09:00	57.3	57.3	57.3	97	56.5	0	1	315	0.00	29.940 
09:05	57.2	57.2	57.2	97	56.4	0	3	315	0.00	29.940 
09:10	57.3	57.3	57.3	97	56.5	0	2	315	0.00	29.940 
09:15	57.3	57.3	57.3	97	56.5	0	1	315	0.00	29.942 
09:20	57.3	57.3	57.3	97	56.5	0	1	315	0.00	29.942 
09:25	57.3	57.3	57.3	97	56.5	1	3	315	0.00	29.942 
09:30	57.3	57.3	57.3	97	56.5	1	3	315	0.00	29.941 
09:35	57.3	57.3	57.3	97	56.5	0	2	315	0.00	29.941 
09:40	57.5	57.5	57.5	97	56.7	0	2	292	0.00	29.941 
09:45	57.5	57.5	57.5	97	56.7	1	3	292	0.00	29.937 
09:50	57.5	57.5	57.5	97	56.7	0	2	292	0.00	29.937 
09:55	57.5	57.5	57.5	97	56.7	0	1	292	0.00	29.937 
10:00	57.5	57.5	57.5	97	56.7	1	3	292	0.00	29.933 
10:05	57.5	57.5	57.5	97	56.7	1	2	292	0.00	29.933 
10:10	57.6	57.6	57.6	97	56.8	0	2	292	0.00	29.933 
10:15	57.6	57.6	57.6	97	56.8	0	3	292	0.00	29.933 
10:20	57.6	57.6	57.6	97	56.8	1	3	292	0.00	29.933 
10:25	57.6	57.6	57.6	97	56.8	0	2	292	0.00	29.933 
10:30	57.8	57.8	57.8	97	57.0	1	2	292	0.00	29.938 
10:35	57.8	57.8	57.8	97	57.0	1	4	292	0.00	29.938 
10:40	57.8	57.8	57.8	97	57.0	1	3	292	0.00	29.938 
10:45	57.8	57.8	57.8	97	57.0	0	2	292	0.00	29.939 
10:50	58.0	58.0	58.0	97	57.2	1	3	292	0.00	29.939 
10:55	58.1	58.1	58.1	97	57.3	1	3	292	0.00	29.939 
11:00	58.3	58.3	58.3	97	57.5	1	3	292	0.00	29.939 
11:05	58.9	58.9	58.9	97	58.0	1	3	292	0.00	29.939 
11:10	58.9	58.9	58.9	97	58.0	2	4	292	0.00	29.939 
11:15	58.7	58.7	58.7	97	57.8	2	3	292	0.00	29.947 
11:20	58.4	58.4	58.4	96	57.3	2	5	270	0.00	29.947 
11:25	58.3	58.3	58.3	97	57.5	1	3	270	0.00	29.947 
11:30	58.3	58.3	58.3	96	57.2	1	2	270	0.00	29.949 
11:35	58.3	58.3	58.3	96	57.2	2	4	270	0.00	29.949 
11:40	58.3	58.3	58.3	96	57.2	2	3	270	0.00	29.949 
11:45	58.6	58.6	58.6	97	57.7	0	2	270	0.00	29.952 
11:50	58.7	58.7	58.7	96	57.6	1	3	338	0.00	29.952 
11:55	58.7	58.7	58.7	96	57.6	1	3	338	0.00	29.952 
12:00	58.7	58.7	58.7	96	57.6	1	3	338	0.00	29.956 
12:05	59.0	59.0	59.0	96	57.9	0	2	338	0.00	29.956 
12:10	59.3	59.3	59.3	96	58.2	1	3	338	0.00	29.956 
12:15	59.5	59.5	59.5	96	58.4	1	3	338	0.00	29.958 
12:20	59.6	59.6	59.6	96	58.5	1	3	338	0.00	29.958 
12:25	59.9	59.9	59.9	96	58.8	1	4	338	0.00	29.958 
12:30	59.9	59.9	59.9	95	58.5	1	3	315	0.00	29.960 
12:35	60.5	60.5	60.5	95	59.1	1	3	315	0.00	29.960 
12:40	60.7	60.7	60.7	93	58.7	2	4	270	0.00	29.960 
12:45	61.0	61.0	61.0	93	59.0	1	3	292	0.00	29.966 
12:50	60.9	60.9	60.9	91	58.3	1	4	292	0.00	29.966 
12:55	60.7	60.7	60.7	90	57.7	1	3	292	0.00	29.966 
13:00	60.5	60.5	60.5	89	57.2	1	3	292	0.00	29.974 
13:05	60.5	60.5	60.5	89	57.2	0	2	292	0.00	29.974 
13:10	60.4	60.4	60.4	88	56.8	1	2	292	0.00	29.974 
13:15	60.4	60.4	60.4	88	56.8	0	2	292	0.00	29.975 
13:20	60.4	60.4	60.4	88	56.8	1	4	292	0.00	29.975 
13:25	60.4	60.4	60.4	88	56.8	1	3	292	0.00	29.975 
13:30	60.5	60.5	60.5	88	56.9	1	3	292	0.00	29.976 
13:35	60.5	60.5	60.5	88	56.9	2	4	292	0.00	29.976 
13:40	60.7	60.7	60.7	88	57.1	1	3	292	0.00	29.976 
13:45	60.9	60.9	60.9	88	57.3	1	3	292	0.00	29.977 
13:50	60.7	60.7	60.7	88	57.1	2	3	292	0.00	29.977 
13:55	60.7	60.7	60.7	88	57.1	1	3	292	0.00	29.977 
14:00	60.7	60.7	60.7	88	57.1	1	3	292	0.00	29.982 
14:05	60.9	60.9	60.9	87	57.0	1	3	338	0.00	29.982 
14:10	61.2	61.2	61.2	87	57.3	1	3	338	0.00	29.982 
14:15	61.2	61.2	61.2	86	57.0	1	3	338	0.00	29.985 
14:20	61.2	61.2	61.2	86	57.0	1	4	292	0.00	29.985 
14:25	61.0	61.0	61.0	86	56.8	2	4	292	0.00	29.985 
14:30	60.9	60.9	60.9	86	56.7	2	3	292	0.00	29.988 
14:35	61.0	61.0	61.0	87	57.1	2	3	292	0.00	29.988 
14:40	61.5	61.5	61.5	87	57.6	1	4	315	0.00	29.988 
14:45	62.0	62.0	62.0	87	58.1	2	4	248	0.00	29.980 
14:50	62.6	62.6	62.6	85	58.0	2	4	248	0.00	29.980 
14:55	63.2	63.2	63.2	83	57.9	2	5	292	0.00	29.980 
15:00	63.7	63.7	63.7	83	58.4	1	4	292	0.00	29.979 
15:05	64.3	64.3	64.3	81	58.3	2	4	292	0.00	29.979 
15:10	64.8	64.8	64.8	79	58.1	2	5	338	0.00	29.979 
15:15	64.8	64.8	64.8	77	57.4	1	4	292	0.00	29.975 
15:20	64.7	64.7	64.7	78	57.7	1	3	338	0.00	29.975 
15:25	64.7	64.7	64.7	78	57.7	1	4	248	0.00	29.975 
15:30	65.0	65.0	65.0	79	58.3	0	2	248	0.00	29.976 
15:35	65.3	65.3	65.3	76	57.5	2	5	315	0.00	29.976 
15:40	65.6	65.6	65.6	76	57.8	2	4	292	0.00	29.976 
15:45	66.1	66.1	66.1	77	58.7	1	3	292	0.00	29.974 
15:50	66.1	66.1	66.1	73	57.2	2	5	292	0.00	29.974 
15:55	66.0	66.0	66.0	74	57.5	2	6	315	0.00	29.974 
16:00	66.0	66.0	66.0	74	57.5	1	4	315	0.00	29.970 
16:05	66.1	66.1	66.1	76	58.3	2	4	292	0.00	29.970 
16:10	66.4	66.4	66.4	74	57.9	2	5	292	0.00	29.970 
16:15	66.4	66.4	66.4	73	57.5	2	5	270	0.00	29.967 
16:20	66.9	66.9	66.9	76	59.1	1	4	292	0.00	29.967 
16:25	67.4	67.4	67.4	72	58.1	3	6	270	0.00	29.967 
16:30	67.3	67.3	67.3	71	57.6	3	5	292	0.00	29.966 
16:35	67.4	67.4	67.4	71	57.7	3	4	270	0.00	29.966 
16:40	68.1	68.1	68.1	72	58.7	1	4	248	0.00	29.966 
16:45	68.3	68.3	68.3	68	57.3	2	4	292	0.00	29.965 
16:50	68.1	68.1	68.1	70	57.9	1	3	315	0.00	29.965 
16:55	68.1	68.1	68.1	69	57.5	1	3	315	0.00	29.965 
17:00	67.8	67.8	67.8	68	56.8	1	4	315	0.00	29.966 
17:05	67.3	67.3	67.3	70	57.2	2	5	338	0.00	29.966 
17:10	67.1	67.1	67.1	70	57.0	2	4	270	0.00	29.966 
17:15	66.9	66.9	66.9	70	56.8	2	4	292	0.00	29.967 
17:20	66.9	66.9	66.9	71	57.2	2	5	292	0.00	29.967 
17:25	66.9	66.9	66.9	70	56.8	2	4	270	0.00	29.967 
17:30	67.1	67.1	67.1	71	57.4	1	3	292	0.00	29.968 
17:35	66.9	66.9	66.9	70	56.8	2	3	292	0.00	29.968 
17:40	66.6	66.6	66.6	69	56.1	3	5	292	0.00	29.968 
17:45	66.3	66.3	66.3	70	56.2	3	4	270	0.00	29.971 
17:50	66.1	66.1	66.1	70	56.0	3	5	270	0.00	29.971 
17:55	65.8	65.8	65.8	71	56.1	2	3	292	0.00	29.971 
18:00	65.8	65.8	65.8	72	56.5	2	4	292	0.00	29.977 
18:05	65.5	65.5	65.5	73	56.6	2	4	270	0.00	29.977 
18:10	65.3	65.3	65.3	74	56.8	1	2	270	0.00	29.977 
18:15	65.3	65.3	65.3	74	56.8	1	4	270	0.00	29.982 
18:20	65.2	65.2	65.2	74	56.7	2	5	292	0.00	29.982 
18:25	64.7	64.7	64.7	77	57.3	1	3	292	0.00	29.982 
18:30	64.3	64.3	64.3	77	56.9	0	1	292	0.00	29.986 
18:35	64.2	64.2	64.2	78	57.2	0	0	---	0.00	29.986 
18:40	64.0	64.0	64.0	80	57.7	0	0	---	0.00	29.986 
18:45	64.0	64.0	64.0	80	57.7	0	0	---	0.00	29.988 
18:50	64.0	64.0	64.0	81	58.0	0	0	---	0.00	29.988 
18:55	64.0	64.0	64.0	82	58.4	0	0	---	0.00	29.988 
19:00	64.2	64.2	64.2	81	58.2	0	2	292	0.00	29.989 
19:05	64.2	64.2	64.2	81	58.2	0	0	---	0.00	29.989 
19:10	64.2	64.2	64.2	81	58.2	0	3	292	0.00	29.989 
19:15	64.3	64.3	64.3	78	57.3	1	3	292	0.00	29.990 
19:20	64.5	64.5	64.5	78	57.5	0	2	292	0.00	29.990 
19:25	64.3	64.3	64.3	78	57.3	0	0	---	0.00	29.990 
19:30	64.3	64.3	64.3	79	57.6	0	0	---	0.00	29.991 
19:35	64.3	64.3	64.3	79	57.6	0	0	---	0.00	29.991 
19:40	64.2	64.2	64.2	80	57.9	0	0	---	0.00	29.991 
19:45	64.2	64.2	64.2	80	57.9	0	0	---	0.00	29.989 
19:50	64.2	64.2	64.2	80	57.9	0	0	---	0.00	29.989 
19:55	64.3	64.3	64.3	81	58.3	0	0	---	0.00	29.989 
20:00	64.3	64.3	64.3	81	58.3	0	0	---	0.00	29.996 
20:05	64.3	64.3	64.3	83	59.0	0	0	---	0.00	29.996 
20:10	64.3	64.3	64.3	84	59.4	0	0	---	0.00	29.996 
20:15	64.0	64.0	64.0	84	59.1	0	0	---	0.00	30.002 
20:20	63.9	63.9	63.9	85	59.3	0	0	---	0.00	30.002 
20:25	63.7	63.7	63.7	85	59.1	0	0	---	0.00	30.002 
20:30	63.4	63.4	63.4	86	59.1	0	1	292	0.00	30.002 
20:35	63.2	63.2	63.2	86	58.9	0	0	---	0.00	30.002 
20:40	63.2	63.2	63.2	86	58.9	0	0	---	0.00	30.002 
20:45	63.1	63.1	63.1	87	59.2	0	0	---	0.00	30.001 
20:50	63.1	63.1	63.1	87	59.2	0	0	---	0.00	30.001 
20:55	62.9	62.9	62.9	87	59.0	0	0	---	0.00	30.001 
21:00	62.9	62.9	62.9	87	59.0	0	0	---	0.00	30.003 
21:05	62.7	62.7	62.7	87	58.8	0	0	---	0.00	30.003 
21:10	62.7	62.7	62.7	87	58.8	0	0	---	0.00	30.003 
21:15	62.7	62.7	62.7	87	58.8	0	0	---	0.00	30.003 
21:20	62.7	62.7	62.7	87	58.8	0	1	292	0.00	30.003 
21:25	62.7	62.7	62.7	87	58.8	0	1	292	0.00	30.003 
21:30	62.7	62.7	62.7	88	59.1	0	1	292	0.00	30.003 
21:35	62.6	62.6	62.6	88	59.0	0	0	---	0.00	30.003 
21:40	62.6	62.6	62.6	88	59.0	0	1	292	0.00	30.003 
21:45	62.6	62.6	62.6	88	59.0	0	0	---	0.00	30.004 
21:50	62.4	62.4	62.4	88	58.8	0	0	---	0.00	30.004 
21:55	62.3	62.3	62.3	88	58.7	0	0	---	0.00	30.004 
22:00	62.1	62.1	62.1	89	58.8	0	0	---	0.00	30.011 
22:05	61.8	61.8	61.8	89	58.5	0	0	---	0.00	30.011 
22:10	61.6	61.6	61.6	89	58.3	0	0	---	0.00	30.011 
22:15	61.3	61.3	61.3	90	58.3	0	0	---	0.00	30.010 
22:20	61.2	61.2	61.2	90	58.2	0	0	---	0.00	30.010 
22:25	60.9	60.9	60.9	90	57.9	0	0	---	0.00	30.010 
22:30	60.7	60.7	60.7	90	57.7	0	0	---	0.00	30.017 
22:35	60.4	60.4	60.4	90	57.4	0	0	---	0.00	30.017 
22:40	60.1	60.1	60.1	90	57.2	0	0	---	0.00	30.017 
22:45	59.9	59.9	59.9	91	57.3	0	0	---	0.00	30.017 
22:50	59.6	59.6	59.6	91	57.0	0	0	---	0.00	30.017 
22:55	59.5	59.5	59.5	91	56.9	0	0	---	0.00	30.017 
23:00	59.5	59.5	59.5	91	56.9	0	0	---	0.00	30.016 
23:05	59.6	59.6	59.6	92	57.3	0	0	---	0.00	30.016 
23:10	59.6	59.6	59.6	92	57.3	0	0	---	0.00	30.016 
23:15	59.6	59.6	59.6	92	57.3	0	0	---	0.00	30.020 
23:20	59.6	59.6	59.6	92	57.3	0	0	---	0.00	30.020 
23:25	59.6	59.6	59.6	93	57.6	0	0	---	0.00	30.020 
23:30	59.8	59.8	59.8	93	57.8	0	1	292	0.00	30.022 
23:35	59.8	59.8	59.8	93	57.8	0	0	---	0.00	30.022 
23:40	59.8	59.8	59.8	93	57.8	0	1	292	0.00	30.022 
23:45	59.6	59.6	59.6	93	57.6	0	1	292	0.00	30.020 
23:50	59.5	59.5	59.5	93	57.5	0	0	---	0.00	30.020 
23:55	59.3	59.3	59.3	93	57.3	0	0	---	0.00	30.020 

CoCoRaHS
IN-AL-39
A2 Web Hosting
Creative Commons License
GoDaddy
search engine by freefind advanced

loaded 2018-12-19 10:28:05 • last modified 2010-11-18 10:43:29
Privacy PolicyDisclaimer
• wx.awcolley.com is powered by PmWiki v.2002016 •
• all content (unless otherwise noted) © 2018 A W Colley